Weather at Argos Airport

Public forecast

Using degrees Celsius for public forecast. Weather courtesy of forecast.io.

Closest aviation weather report (METAR) to Argos Airport

Closest report is Elefsis Airport, 47.1 nm (87.3 km) ENE. Retrieved 2021/04/12 22:20 UTC (34 minutes ago):

LGEL 122220Z 33004KT CAVOK 11/06 Q1020

Closest aviation forecast (TAF) to Argos Airport

Closest forecast is Elefsis Airport, 47.1 nm (87.3 km) ENE. Retrieved 2021/04/12 18:00 UTC (5 hours ago):

TAF LGEL 121700Z 1218/1318 VRB05KT 9999 FEW020 TEMPO 1220/1304 34005KT BECMG 1304/1306 18010KT